createdAt,value
2022-09-28T00:05:38.828Z,998.3499912746289
2022-09-28T00:12:07.744Z,998.3221259449118
2022-09-28T00:18:37.448Z,998.299241051686
2022-09-28T00:34:10.807Z,998.2580744168339
2022-09-28T00:41:49.086Z,998.1721175248259
2022-09-28T00:53:40.083Z,998.0805517204385
2022-09-28T01:00:08.616Z,998.0541242761662
2022-09-28T01:12:00.468Z,997.9109760930339
2022-09-28T01:18:29.741Z,997.8398520792807
2022-09-28T01:25:04.714Z,997.7768606135118
2022-09-28T01:31:33.443Z,997.7881880029079
2022-09-28T01:38:01.266Z,997.7139671746053
2022-09-28T01:44:29.504Z,997.7093516367349
2022-09-28T01:50:57.493Z,997.713263848169
2022-09-28T01:57:25.672Z,997.6651785546469
2022-09-28T02:03:53.672Z,997.6032925555483
2022-09-28T02:17:25.531Z,997.481672256152
2022-09-28T02:24:02.433Z,997.4579630118723
2022-09-28T02:36:33.420Z,997.4743738370689
2022-09-28T02:43:01.740Z,997.4739536572147
2022-09-28T02:49:29.772Z,997.4645059772623
2022-09-28T02:55:57.931Z,997.4767915209071
2022-09-28T03:03:09.209Z,997.5108282390951
2022-09-28T03:10:50.352Z,997.5174465132806
2022-09-28T03:25:06.181Z,997.4919788675047
2022-09-28T03:31:34.464Z,997.4744613398185
2022-09-28T03:38:02.754Z,997.4745650433156
2022-09-28T03:44:31.640Z,997.4506700052929
2022-09-28T03:54:15.957Z,997.4761100674369
2022-09-28T04:00:43.931Z,997.4697394776128
2022-09-28T04:12:53.629Z,997.4057731851877
2022-09-28T04:19:21.101Z,997.4010108437819
2022-09-28T04:29:11.252Z,997.4253733617559
2022-09-28T04:36:39.900Z,997.4149592100179
2022-09-28T04:43:07.673Z,997.4197684372335
2022-09-28T04:49:35.679Z,997.426239421745
2022-09-28T04:56:02.507Z,997.4056301646436
2022-09-28T05:03:29.584Z,997.3716480173562
2022-09-28T05:15:39.979Z,997.3978082605084
2022-09-28T05:22:08.172Z,997.3976470441771
2022-09-28T05:34:29.980Z,997.4584846686082
2022-09-28T05:40:57.818Z,997.4306453233141
2022-09-28T05:51:23.519Z,997.3887974203745
2022-09-28T05:57:49.976Z,997.3552437663825
2022-09-28T06:04:17.242Z,997.3188308945944
2022-09-28T06:10:44.725Z,997.3618450320558
2022-09-28T06:17:11.181Z,997.3952621477687
2022-09-28T06:23:48.987Z,997.4461552763184
2022-09-28T06:36:36.033Z,997.5153970611157
2022-09-28T06:44:47.305Z,997.6311723904743
2022-09-28T06:51:14.838Z,997.6976378163205
2022-09-28T06:57:42.472Z,997.7637210108918
2022-09-28T07:04:10.265Z,997.8042193530548
2022-09-28T07:10:37.790Z,997.8253247195755
2022-09-28T07:20:16.367Z,997.927309317964
2022-09-28T07:26:52.348Z,998.006720444066
2022-09-28T07:33:18.782Z,998.0416559518621
2022-09-28T07:39:46.048Z,998.0533448901706
2022-09-28T07:49:11.436Z,998.1092198181136
2022-09-28T08:03:44.582Z,998.2597710377979
2022-09-28T08:10:12.059Z,998.2815691935035
2022-09-28T08:23:56.500Z,998.3605428886714
2022-09-28T08:30:24.992Z,998.4206664139914
2022-09-28T08:36:52.988Z,998.4715919902235
2022-09-28T08:44:03.610Z,998.5469675539321
2022-09-28T08:50:33.199Z,998.6131786205691
2022-09-28T08:57:00.928Z,998.6766709571219
2022-09-28T09:07:41.978Z,998.7718372025867
2022-09-28T09:14:09.625Z,998.8357309782525
2022-09-28T09:21:01.438Z,998.8986396854093
2022-09-28T09:27:49.568Z,998.9232937537452
2022-09-28T09:34:18.386Z,998.9751571966113
2022-09-28T09:47:12.360Z,999.0581115804528
2022-09-28T09:53:41.050Z,999.0841676945297
2022-09-28T10:09:54.709Z,999.2122425364329
2022-09-28T10:16:24.932Z,999.208921081853
2022-09-28T10:29:03.613Z,999.1930105659451
2022-09-28T11:00:12.401Z,999.3212637711716
2022-09-28T11:06:41.317Z,999.3514606715406
2022-09-28T11:13:09.415Z,999.3524791997816
2022-09-28T11:19:37.522Z,999.34313961372
2022-09-28T11:31:45.914Z,999.2825211046581
2022-09-28T11:45:32.569Z,999.3162452407184
2022-09-28T11:56:18.034Z,999.3390586867988
2022-09-28T12:02:47.023Z,999.3506136589803
2022-09-28T12:10:07.895Z,999.3555668524516
2022-09-28T12:17:04.318Z,999.3487101325709
2022-09-28T12:23:42.624Z,999.3621436136244
2022-09-28T12:30:11.652Z,999.3963444627001
2022-09-28T12:36:41.994Z,999.3792614079019
2022-09-28T12:48:37.869Z,999.423737505104
2022-09-28T12:58:38.270Z,999.4067482723353
2022-09-28T13:06:22.590Z,999.4298272229217
2022-09-28T13:14:56.410Z,999.4749300686906
2022-09-28T13:24:14.810Z,999.5198918635473
2022-09-28T13:33:03.915Z,999.5812293421512
2022-09-28T13:39:34.308Z,999.5927749724827
2022-09-28T13:50:43.090Z,999.6470792779787
2022-09-28T13:57:12.417Z,999.6585890064256
2022-09-28T14:03:42.217Z,999.6559912151976
2022-09-28T14:16:29.739Z,999.6447883759334
2022-09-28T14:22:58.977Z,999.6328557666701
2022-09-28T14:29:29.122Z,999.6717884586437
2022-09-28T14:35:57.857Z,999.7155759784667
2022-09-28T14:42:27.248Z,999.7656911441061
2022-09-28T14:52:19.850Z,999.8106137727127
2022-09-28T15:03:13.395Z,999.8614430242899
2022-09-28T15:13:42.202Z,999.8877992111894
2022-09-28T15:20:13.146Z,999.8847665062599
2022-09-28T15:28:34.929Z,999.9132920138592
2022-09-28T15:41:55.987Z,999.9943686909921
2022-09-28T15:48:26.488Z,1000.0235368746347
2022-09-28T15:54:56.439Z,1000.0245454177367
2022-09-28T16:01:26.695Z,1000.0232645777385
2022-09-28T16:07:56.699Z,1000.0514655737826
2022-09-28T16:14:26.656Z,1000.0920206515343
2022-09-28T16:20:57.012Z,1000.1348437385966
2022-09-28T16:28:10.486Z,1000.1849456510803
2022-09-28T16:34:40.335Z,1000.1882970496122
2022-09-28T16:43:56.475Z,1000.2943025277741
2022-09-28T16:50:26.818Z,1000.329807076047
2022-09-28T16:59:03.108Z,1000.3966672667278
2022-09-28T17:05:33.131Z,1000.4174956007928
2022-09-28T17:18:21.502Z,1000.5087427723242
2022-09-28T17:27:21.474Z,1000.5697191871901
2022-09-28T17:33:51.508Z,1000.6468287927141
2022-09-28T17:40:21.517Z,1000.6542850608301
2022-09-28T17:46:51.163Z,1000.6610577645401
2022-09-28T17:53:21.441Z,1000.6577006039022
2022-09-28T18:00:44.917Z,1000.6960658295533
2022-09-28T18:25:51.197Z,1000.7689491747291
2022-09-28T18:32:21.558Z,1000.9167818427308
2022-09-28T18:38:51.709Z,1001.003530817369
2022-09-28T18:49:43.585Z,1001.0580614757371
2022-09-28T18:56:17.233Z,1001.1150997485613
2022-09-28T19:06:04.995Z,1001.1841893374675
2022-09-28T19:12:36.645Z,1001.242724037586
2022-09-28T19:19:09.973Z,1001.2704184022614
2022-09-28T19:25:54.372Z,1001.2872118233742
2022-09-28T19:32:33.252Z,1001.3214785228137
2022-09-28T19:39:08.818Z,1001.3550282159283
2022-09-28T19:52:46.448Z,1001.4698030861379
2022-09-28T19:59:21.053Z,1001.4926807138102
2022-09-28T20:05:54.775Z,1001.4853079464293
2022-09-28T20:12:28.680Z,1001.5709080076235
2022-09-28T20:28:28.645Z,1001.7129849050874
2022-09-28T20:40:59.348Z,1001.7737349447807
2022-09-28T20:47:33.594Z,1001.8006158426227
2022-09-28T20:54:06.994Z,1001.8154646248579
2022-09-28T21:00:41.400Z,1001.849488474269
2022-09-28T21:34:15.591Z,1001.9106644763666
2022-09-28T21:40:50.544Z,1001.955065151421
2022-09-28T21:47:25.938Z,1001.9897664993326
2022-09-28T21:55:29.583Z,1002.0485847219284
2022-09-28T22:02:04.576Z,1002.0989621413921
2022-09-28T22:08:39.240Z,1002.1264116803058
2022-09-28T22:25:25.700Z,1002.1239731539264
2022-09-28T22:31:58.474Z,1002.1940294537395
2022-09-28T22:38:32.055Z,1002.2503543641236
2022-09-28T22:45:05.369Z,1002.3097628532482
2022-09-28T22:51:39.712Z,1002.3387903690992
2022-09-28T22:58:45.554Z,1002.3457530055306
2022-09-28T23:05:20.830Z,1002.3368464737968
2022-09-28T23:15:48.677Z,1002.345831983188
2022-09-28T23:22:23.541Z,1002.3284360484345
2022-09-28T23:29:09.530Z,1002.310517887936
2022-09-28T23:36:05.238Z,1002.3741957992238
2022-09-28T23:56:40.619Z,1002.3993733753217
